Time;durP1;ratioP1;P1;durP2;ratioP2;P2;SDS_P1;SDS_P2;PMS_P1;PMS_P2;Temp;Humidity;BMP_temperature;BMP_pressure;BME280_temperature;BME280_humidity;BME280_pressure;Samples;Min_cycle;Max_cycle;Signal;HPM_P1;HPM_P2
2023/09/12 00:02:29;;;;;;;13.65;9.57;;;20.10;1.00;;;;;;7370124;19;20018;-70
2023/09/12 00:05:03;;;;;;;12.88;9.55;;;20.10;1.00;;;;;;7365803;19;20034;-69
2023/09/12 00:07:33;;;;;;;22.75;9.98;;;20.10;1.00;;;;;;7370403;19;20015;-70
2023/09/12 00:10:03;;;;;;;17.95;10.00;;;20.20;1.00;;;;;;7369313;19;20014;-69
2023/09/12 00:12:34;;;;;;;18.77;9.13;;;20.20;1.00;;;;;;7370903;19;20731;-70
2023/09/12 00:15:04;;;;;;;13.45;9.20;;;20.10;1.00;;;;;;7367489;19;20015;-69
2023/09/12 00:17:34;;;;;;;15.40;8.82;;;20.10;1.00;;;;;;7370839;19;20021;-69
2023/09/12 00:20:08;;;;;;;16.75;9.23;;;20.10;1.00;;;;;;7369215;19;20115;-69
2023/09/12 00:22:38;;;;;;;;;;;20.10;1.00;;;;;;7369250;19;20627;-69
2023/09/12 00:25:09;;;;;;;12.15;8.15;;;20.10;1.00;;;;;;7368870;19;19922;-69
2023/09/12 00:27:39;;;;;;;14.00;9.02;;;20.00;1.00;;;;;;7370860;19;20082;-69
2023/09/12 00:30:10;;;;;;;12.98;8.82;;;19.90;1.00;;;;;;7370025;19;20019;-69
2023/09/12 00:32:40;;;;;;;14.57;9.20;;;19.70;1.00;;;;;;7368742;19;20019;-69
2023/09/12 00:35:13;;;;;;;12.90;9.05;;;19.60;1.00;;;;;;7368254;19;20014;-69
2023/09/12 00:37:43;;;;;;;11.73;8.27;;;19.50;1.00;;;;;;7369089;19;20778;-69
2023/09/12 00:40:14;;;;;;;15.20;8.68;;;19.40;1.00;;;;;;7370103;19;20085;-69
2023/09/12 00:42:44;;;;;;;13.95;8.52;;;19.50;1.00;;;;;;7364532;19;20025;-69
2023/09/12 00:45:14;;;;;;;11.85;7.97;;;19.30;1.00;;;;;;7368388;19;20039;-69
2023/09/12 00:47:44;;;;;;;14.00;8.13;;;19.30;1.00;;;;;;7368297;19;20010;-69
2023/09/12 00:50:18;;;;;;;20.30;8.95;;;19.30;1.00;;;;;;7368895;19;20019;-69
2023/09/12 00:52:49;;;;;;;;;;;19.30;1.00;;;;;;7366854;19;20093;-69
2023/09/12 00:55:19;;;;;;;12.82;9.45;;;19.30;1.00;;;;;;7367313;19;20226;-69
2023/09/12 00:57:50;;;;;;;14.35;9.50;;;19.40;1.00;;;;;;7367572;19;20758;-69
2023/09/12 01:00:20;;;;;;;11.98;8.38;;;19.40;1.00;;;;;;7369009;19;20015;-69
2023/09/12 01:02:52;;;;;;;16.08;9.27;;;19.50;1.00;;;;;;7366790;19;20049;-69
2023/09/12 01:05:25;;;;;;;14.95;9.27;;;19.50;1.00;;;;;;7372552;19;20014;-69
2023/09/12 01:07:56;;;;;;;14.15;8.82;;;19.50;1.00;;;;;;7375324;19;20090;-69
2023/09/12 01:10:26;;;;;;;14.63;8.95;;;19.50;1.00;;;;;;7375485;19;20015;-69
2023/09/12 01:12:56;;;;;;;17.38;9.77;;;19.40;1.00;;;;;;7371912;19;20023;-69
2023/09/12 01:15:26;;;;;;;16.52;9.90;;;19.40;1.00;;;;;;7374636;19;20090;-70
2023/09/12 01:17:56;;;;;;;15.23;9.00;;;19.40;1.00;;;;;;7373626;19;20022;-69
2023/09/12 01:20:33;;;;;;;16.85;10.10;;;19.40;1.00;;;;;;7376023;19;20845;-69
2023/09/12 01:23:18;;;;;;;15.55;10.02;;;19.40;1.00;;;;;;7371893;19;20018;-69
2023/09/12 01:26:17;;;;;;;18.02;9.50;;;19.40;1.00;;;;;;7375292;19;20027;-69
2023/09/12 01:28:52;;;;;;;17.50;9.88;;;19.40;1.00;;;;;;7374902;19;20792;-70
2023/09/12 01:31:22;;;;;;;14.07;9.05;;;19.40;1.00;;;;;;7375184;19;20074;-70
2023/09/12 01:33:57;;;;;;;13.15;9.00;;;19.30;1.00;;;;;;7371221;19;20069;-70
2023/09/12 01:36:27;;;;;;;15.77;8.88;;;19.20;1.00;;;;;;7374962;19;20026;-70
2023/09/12 01:38:57;;;;;;;13.00;8.52;;;19.00;1.00;;;;;;7373821;19;20046;-70
2023/09/12 01:41:29;;;;;;;13.43;9.02;;;18.90;1.00;;;;;;7375894;19;20018;-70
2023/09/12 01:44:03;;;;;;;12.75;9.27;;;18.90;1.00;;;;;;7370753;19;20014;-70
2023/09/12 01:46:36;;;;;;;12.70;8.80;;;18.90;1.00;;;;;;7374054;19;20024;-70
2023/09/12 01:49:08;;;;;;;15.73;9.05;;;18.80;1.00;;;;;;7373592;19;20031;-69
2023/09/12 01:51:38;;;;;;;12.80;8.75;;;18.80;1.00;;;;;;7375737;19;20600;-69
2023/09/12 01:54:09;;;;;;;19.13;9.95;;;18.70;3.30;;;;;;7371592;19;20346;-69
2023/09/12 01:56:40;;;;;;;13.63;8.40;;;18.60;5.10;;;;;;7374192;19;20098;-70
2023/09/12 01:59:13;;;;;;;15.85;9.00;;;18.60;6.70;;;;;;7374476;19;20640;-70
2023/09/12 02:01:44;;;;;;;14.45;9.15;;;18.60;7.40;;;;;;7374057;19;20015;-69
2023/09/12 02:04:14;;;;;;;12.38;9.52;;;18.60;7.30;;;;;;7371397;19;20010;-70
2023/09/12 02:06:44;;;;;;;13.65;9.90;;;18.70;7.70;;;;;;7372666;19;20018;-69
2023/09/12 02:09:13;;;;;;;13.05;9.85;;;18.70;7.40;;;;;;7374023;19;20007;-70
2023/09/12 02:11:44;;;;;;;16.67;10.48;;;18.90;6.80;;;;;;7373330;19;21195;-69
2023/09/12 02:14:17;;;;;;;14.48;10.35;;;18.90;3.60;;;;;;7371424;19;20516;-70
2023/09/12 02:16:47;;;;;;;18.05;10.02;;;18.90;3.50;;;;;;7362565;19;20022;-69
2023/09/12 02:19:17;;;;;;;13.93;9.15;;;19.00;1.00;;;;;;7371706;19;20026;-70
2023/09/12 02:21:47;;;;;;;17.80;9.38;;;19.00;1.00;;;;;;7371633;19;20022;-69
2023/09/12 02:24:18;;;;;;;15.50;9.38;;;18.90;1.00;;;;;;7368842;19;20015;-69
2023/09/12 02:26:48;;;;;;;13.90;9.13;;;19.00;1.00;;;;;;7369697;19;20350;-71
2023/09/12 02:29:20;;;;;;;16.48;10.10;;;18.90;1.00;;;;;;7373869;19;20411;-70
2023/09/12 02:31:50;;;;;;;12.75;9.88;;;18.80;1.00;;;;;;7372067;19;20090;-70
2023/09/12 02:34:20;;;;;;;14.70;9.80;;;18.90;1.00;;;;;;7370632;19;20014;-70
2023/09/12 02:36:50;;;;;;;13.30;9.50;;;18.90;1.00;;;;;;7371472;19;20042;-70
2023/09/12 02:39:20;;;;;;;16.55;10.38;;;18.90;1.00;;;;;;7373586;19;20103;-70
2023/09/12 02:41:50;;;;;;;15.80;9.65;;;18.90;1.00;;;;;;7371481;19;20021;-70
2023/09/12 02:44:23;;;;;;;22.80;10.40;;;18.80;1.00;;;;;;7369779;19;20080;-69
2023/09/12 02:46:53;;;;;;;15.32;9.68;;;18.80;1.00;;;;;;7371332;19;20041;-70
2023/09/12 02:49:23;;;;;;;16.08;10.65;;;18.90;1.00;;;;;;7373693;19;20039;-69
2023/09/12 02:51:53;;;;;;;18.25;10.65;;;18.90;1.00;;;;;;7372198;19;20018;-70
2023/09/12 02:54:23;;;;;;;24.85;10.27;;;18.90;1.00;;;;;;7370605;19;20103;-70
2023/09/12 02:56:53;;;;;;;18.90;10.57;;;18.90;1.00;;;;;;7371203;19;20038;-70
2023/09/12 02:59:25;;;;;;;17.05;10.77;;;18.90;1.00;;;;;;7373540;19;20028;-71
2023/09/12 03:01:55;;;;;;;16.13;10.50;;;18.80;1.00;;;;;;7371895;19;20014;-69
2023/09/12 03:04:28;;;;;;;15.80;11.00;;;18.80;1.00;;;;;;7370107;19;20023;-70
2023/09/12 03:06:58;;;;;;;15.10;10.68;;;18.70;1.00;;;;;;7371335;19;20014;-70
2023/09/12 03:09:28;;;;;;;16.67;10.43;;;18.70;1.70;;;;;;7373502;19;20021;-69
2023/09/12 03:11:58;;;;;;;14.82;9.98;;;18.70;1.00;;;;;;7370346;19;20509;-70
2023/09/12 03:14:30;;;;;;;21.10;10.43;;;18.70;1.00;;;;;;7369752;19;20481;-70
2023/09/12 03:17:03;;;;;;;16.25;10.23;;;18.70;2.30;;;;;;7368722;19;20416;-70
2023/09/12 03:19:34;;;;;;;14.23;10.20;;;18.80;1.00;;;;;;7372623;19;20626;-70
2023/09/12 03:22:04;;;;;;;15.88;10.77;;;18.70;2.30;;;;;;7370377;19;21024;-70
2023/09/12 03:24:34;;;;;;;17.90;11.95;;;18.60;3.80;;;;;;7368597;19;20018;-70
2023/09/12 03:27:04;;;;;;;14.60;10.93;;;18.50;6.10;;;;;;7370125;19;20021;-69
2023/09/12 03:29:37;;;;;;;19.42;11.50;;;18.60;9.80;;;;;;7372176;19;20014;-69
2023/09/12 03:32:08;;;;;;;19.08;11.80;;;18.50;7.80;;;;;;7370133;19;20042;-70
2023/09/12 03:34:38;;;;;;;19.05;11.15;;;18.40;12.10;;;;;;7368523;19;20278;-70
2023/09/12 03:37:08;;;;;;;17.73;11.35;;;18.50;10.10;;;;;;7371027;19;20015;-69
2023/09/12 03:39:38;;;;;;;17.40;10.88;;;18.60;4.40;;;;;;7371732;19;20459;-69
2023/09/12 03:42:08;;;;;;;18.63;11.10;;;18.50;2.80;;;;;;7370812;19;20014;-69
2023/09/12 03:44:41;;;;;;;13.45;10.20;;;18.60;2.50;;;;;;7367605;19;20053;-69
2023/09/12 03:47:11;;;;;;;21.80;12.98;;;18.50;2.30;;;;;;7370356;19;20039;-71
2023/09/12 03:49:40;;;;;;;25.90;12.32;;;18.50;2.90;;;;;;7372059;19;20032;-70
2023/09/12 03:52:10;;;;;;;15.05;10.68;;;18.50;1.90;;;;;;7371840;19;20017;-70
2023/09/12 03:54:41;;;;;;;17.17;10.57;;;18.50;1.10;;;;;;7367075;19;20373;-69
2023/09/12 03:57:11;;;;;;;14.15;10.52;;;18.50;3.80;;;;;;7371126;19;20007;-70
2023/09/12 03:59:43;;;;;;;18.38;10.48;;;18.40;2.90;;;;;;7371727;19;20011;-70
2023/09/12 04:02:13;;;;;;;20.70;10.50;;;18.40;3.50;;;;;;7371973;19;20031;-70
2023/09/12 04:04:43;;;;;;;14.82;10.40;;;18.50;4.10;;;;;;7366904;19;20128;-70
2023/09/12 04:07:13;;;;;;;17.83;11.10;;;18.60;1.00;;;;;;7370494;19;20018;-69
2023/09/12 04:09:43;;;;;;;14.93;10.70;;;18.50;1.00;;;;;;7370747;19;20078;-69
2023/09/12 04:12:13;;;;;;;15.00;10.30;;;18.50;1.00;;;;;;7371234;19;20021;-70
2023/09/12 04:14:45;;;;;;;16.73;10.40;;;18.50;1.40;;;;;;7366758;19;20010;-70
2023/09/12 04:17:15;;;;;;;16.10;10.45;;;18.50;1.00;;;;;;7368430;19;20793;-70
2023/09/12 04:19:45;;;;;;;15.65;11.10;;;18.50;1.00;;;;;;7371366;19;20019;-69
2023/09/12 04:22:16;;;;;;;19.02;11.45;;;18.50;1.00;;;;;;7369526;19;20451;-69
2023/09/12 04:24:46;;;;;;;15.25;11.00;;;18.60;1.00;;;;;;7364911;19;20645;-70
2023/09/12 04:27:16;;;;;;;20.08;11.95;;;18.60;1.00;;;;;;7370163;19;20010;-70
2023/09/12 04:29:49;;;;;;;19.50;10.38;;;18.70;1.00;;;;;;7368961;19;20017;-70
2023/09/12 04:32:23;;;;;;;17.02;9.95;;;18.60;1.00;;;;;;7370541;19;20608;-70
2023/09/12 04:34:53;;;;;;;17.75;10.93;;;18.60;1.00;;;;;;7362375;19;20018;-69
2023/09/12 04:37:23;;;;;;;15.02;11.27;;;18.60;1.00;;;;;;7367794;19;20400;-69
2023/09/12 04:39:53;;;;;;;15.40;10.38;;;18.60;1.00;;;;;;7371945;19;20474;-70
2023/09/12 04:42:23;;;;;;;16.88;10.82;;;18.60;1.00;;;;;;7377050;19;20035;-70
2023/09/12 04:44:56;;;;;;;19.85;10.32;;;18.70;1.00;;;;;;7369615;19;20024;-70
2023/09/12 04:47:27;;;;;;;16.02;10.48;;;18.60;1.00;;;;;;7376846;19;20074;-69
2023/09/12 04:49:57;;;;;;;16.48;10.88;;;18.60;1.00;;;;;;7374858;19;20097;-70
2023/09/12 04:52:27;;;;;;;15.23;10.73;;;18.60;1.00;;;;;;7377085;19;20011;-70
2023/09/12 04:54:57;;;;;;;16.10;10.15;;;18.60;1.00;;;;;;7368461;19;20021;-69
2023/09/12 04:57:30;;;;;;;16.70;10.60;;;18.60;1.00;;;;;;7374806;19;20016;-71
2023/09/12 05:00:04;;;;;;;18.60;10.25;;;18.60;1.00;;;;;;7374563;19;20037;-70
2023/09/12 05:02:35;;;;;;;17.63;11.38;;;18.50;1.00;;;;;;7376248;19;20042;-69
2023/09/12 05:05:05;;;;;;;14.13;10.32;;;18.60;1.00;;;;;;7370962;19;20034;-70
2023/09/12 05:07:35;;;;;;;15.45;10.75;;;18.60;1.00;;;;;;7375921;19;20463;-70
2023/09/12 05:10:05;;;;;;;18.48;11.10;;;18.70;1.00;;;;;;7372820;19;20163;-70
2023/09/12 05:12:35;;;;;;;15.48;11.00;;;18.70;1.00;;;;;;7374428;19;20086;-69
2023/09/12 05:15:09;;;;;;;13.10;10.20;;;18.70;1.00;;;;;;7370087;19;20021;-69
2023/09/12 05:17:39;;;;;;;15.05;10.30;;;19.10;1.00;;;;;;7374984;19;20101;-70
2023/09/12 05:20:11;;;;;;;17.52;10.30;;;19.30;1.00;;;;;;7374037;19;20018;-70
2023/09/12 05:22:41;;;;;;;14.35;10.05;;;19.40;1.00;;;;;;7373205;19;20022;-70
2023/09/12 05:25:11;;;;;;;16.10;10.38;;;19.70;1.00;;;;;;7368702;19;20029;-69
2023/09/12 05:27:41;;;;;;;18.92;9.90;;;20.20;1.00;;;;;;7375201;19;20014;-68
2023/09/12 05:30:14;;;;;;;16.65;10.20;;;20.30;1.00;;;;;;7372636;19;20384;-70
2023/09/12 05:32:45;;;;;;;16.48;10.80;;;19.60;1.00;;;;;;7372464;19;20010;-69
2023/09/12 05:35:15;;;;;;;14.50;10.32;;;19.50;1.00;;;;;;7372102;19;20025;-69
2023/09/12 05:37:52;;;;;;;17.90;10.63;;;19.40;1.00;;;;;;7372831;19;20018;-69
2023/09/12 05:40:22;;;;;;;19.42;10.23;;;19.40;1.00;;;;;;7375118;19;20035;-70
2023/09/12 05:42:52;;;;;;;17.25;10.30;;;19.40;1.00;;;;;;7370139;19;20033;-69
2023/09/12 05:45:25;;;;;;;17.70;10.55;;;19.50;1.00;;;;;;7372477;19;20410;-70
2023/09/12 05:47:55;;;;;;;13.07;10.27;;;19.70;1.00;;;;;;7373163;19;20042;-70
2023/09/12 05:50:26;;;;;;;23.80;11.23;;;19.60;1.00;;;;;;7371912;19;20019;-69
2023/09/12 05:52:56;;;;;;;14.75;10.52;;;19.80;1.00;;;;;;7368709;19;20011;-70
2023/09/12 05:55:26;;;;;;;17.52;10.63;;;19.90;1.00;;;;;;7367470;19;20452;-70
2023/09/12 05:57:56;;;;;;;21.73;10.73;;;19.80;1.00;;;;;;7370292;19;20023;-70
2023/09/12 06:00:29;;;;;;;15.63;10.38;;;20.10;1.00;;;;;;7373191;19;20043;-69
2023/09/12 06:02:59;;;;;;;17.65;11.05;;;20.10;1.00;;;;;;7367237;19;20430;-69
2023/09/12 06:05:29;;;;;;;15.57;9.98;;;20.10;1.00;;;;;;7372352;19;20014;-70
2023/09/12 06:07:59;;;;;;;14.10;9.63;;;20.20;1.00;;;;;;7371987;19;20014;-68
2023/09/12 06:10:29;;;;;;;20.63;10.52;;;20.40;1.00;;;;;;7373445;19;20021;-70
2023/09/12 06:12:59;;;;;;;12.35;10.02;;;20.50;1.00;;;;;;7367495;19;20070;-69
2023/09/12 06:15:32;;;;;;;17.77;10.50;;;20.60;1.00;;;;;;7371632;19;20165;-69
2023/09/12 06:18:02;;;;;;;13.52;9.80;;;20.80;1.00;;;;;;7371074;19;20010;-70
2023/09/12 06:20:32;;;;;;;14.38;9.93;;;20.90;1.00;;;;;;7373144;19;20478;-68
2023/09/12 06:23:03;;;;;;;18.73;10.60;;;21.20;1.00;;;;;;7367835;19;20054;-69
2023/09/12 06:25:33;;;;;;;17.67;10.07;;;21.30;1.00;;;;;;7369914;19;20038;-70
2023/09/12 06:28:03;;;;;;;15.40;9.93;;;21.20;1.00;;;;;;7370281;19;20017;-71
2023/09/12 06:30:36;;;;;;;16.13;10.13;;;21.30;1.00;;;;;;7371532;19;20010;-70
2023/09/12 06:33:06;;;;;;;16.38;9.98;;;21.20;1.00;;;;;;7364002;19;20036;-69
2023/09/12 06:35:36;;;;;;;16.63;10.40;;;21.00;1.00;;;;;;7370713;19;20687;-70
2023/09/12 06:38:09;;;;;;;15.50;9.63;;;21.10;1.00;;;;;;7370772;19;21669;-71
2023/09/12 06:40:39;;;;;;;21.17;10.27;;;21.10;1.00;;;;;;7372213;19;20034;-69
2023/09/12 06:43:09;;;;;;;16.95;10.10;;;21.20;1.00;;;;;;7365151;19;20019;-70
2023/09/12 06:45:43;;;;;;;16.15;9.57;;;21.20;1.00;;;;;;7370256;19;20007;-70
2023/09/12 06:48:13;;;;;;;13.35;9.57;;;21.20;1.00;;;;;;7370031;19;20089;-70
2023/09/12 06:50:43;;;;;;;15.73;10.40;;;21.40;1.00;;;;;;7372224;19;21071;-70
2023/09/12 06:53:20;;;;;;;15.80;11.13;;;21.40;1.00;;;;;;7367715;19;20015;-70
2023/09/12 06:55:50;;;;;;;17.17;10.13;;;21.50;1.00;;;;;;7369682;19;20014;-70
2023/09/12 06:58:20;;;;;;;18.38;10.98;;;21.50;1.00;;;;;;7370191;19;20094;-71
2023/09/12 07:00:52;;;;;;;17.23;9.63;;;21.50;1.00;;;;;;7370223;19;20014;-71
2023/09/12 07:03:23;;;;;;;20.70;10.95;;;21.60;1.00;;;;;;7365839;19;20010;-70
2023/09/12 07:05:53;;;;;;;17.65;10.13;;;21.90;1.00;;;;;;7369135;19;20014;-71
2023/09/12 07:08:24;;;;;;;18.30;11.60;;;22.10;1.00;;;;;;7371640;19;20002;-70
2023/09/12 07:10:56;;;;;;;20.10;11.13;;;21.90;1.00;;;;;;7369336;19;20053;-70
2023/09/12 07:13:26;;;;;;;13.13;10.60;;;22.00;1.00;;;;;;7367615;19;20027;-69
2023/09/12 07:15:59;;;;;;;18.40;10.40;;;22.00;1.00;;;;;;7368853;19;21147;-70
2023/09/12 07:18:29;;;;;;;17.58;10.52;;;22.30;1.00;;;;;;7370794;19;20492;-70
2023/09/12 07:21:00;;;;;;;17.73;10.20;;;22.30;1.00;;;;;;7370391;19;20010;-70
2023/09/12 07:23:30;;;;;;;16.15;10.20;;;22.30;1.00;;;;;;7366147;19;20086;-70
2023/09/12 07:26:02;;;;;;;17.05;9.85;;;22.30;1.00;;;;;;7368591;19;20018;-71
2023/09/12 07:28:33;;;;;;;14.15;9.75;;;22.40;1.00;;;;;;7371105;19;20014;-70
2023/09/12 07:31:05;;;;;;;13.70;9.63;;;22.30;1.00;;;;;;7368680;19;20024;-71
2023/09/12 07:33:35;;;;;;;19.20;10.38;;;22.10;1.00;;;;;;7364707;19;20386;-70
2023/09/12 07:36:06;;;;;;;17.90;10.27;;;22.50;1.00;;;;;;7369160;19;20024;-70
2023/09/12 07:38:38;;;;;;;19.92;11.73;;;22.50;1.00;;;;;;7371742;19;20048;-71
2023/09/12 07:41:08;;;;;;;19.83;11.48;;;22.60;1.00;;;;;;7369819;19;20057;-71
2023/09/12 07:43:40;;;;;;;20.27;10.43;;;22.70;1.00;;;;;;7366694;19;20078;-71
2023/09/12 07:46:13;;;;;;;18.58;10.63;;;23.10;1.00;;;;;;7367518;19;20565;-71
2023/09/12 07:48:44;;;;;;;14.18;9.82;;;23.10;1.00;;;;;;7370888;19;20570;-71
2023/09/12 07:51:17;;;;;;;15.65;9.60;;;23.00;1.00;;;;;;7367541;19;20131;-70
2023/09/12 07:53:47;;;;;;;15.50;9.95;;;23.00;1.00;;;;;;7365503;19;20014;-71
2023/09/12 07:56:17;;;;;;;20.90;10.52;;;23.50;1.00;;;;;;7369057;19;20575;-71
2023/09/12 07:58:47;;;;;;;16.05;9.77;;;23.50;1.00;;;;;;7370485;19;20018;-70
2023/09/12 08:01:20;;;;;;;15.82;10.35;;;23.60;1.00;;;;;;7371290;19;20090;-71
2023/09/12 08:03:50;;;;;;;14.73;9.90;;;23.50;1.00;;;;;;7363692;19;20014;-70
2023/09/12 08:06:21;;;;;;;14.82;9.65;;;23.50;1.00;;;;;;7369109;19;20010;-70
2023/09/12 08:08:51;;;;;;;12.60;9.18;;;23.70;1.00;;;;;;7370609;19;20014;-71
2023/09/12 08:11:21;;;;;;;15.15;9.63;;;23.80;1.00;;;;;;7370188;19;20577;-71
2023/09/12 08:13:52;;;;;;;16.05;9.40;;;24.10;1.00;;;;;;7362734;19;20010;-71
2023/09/12 08:16:26;;;;;;;15.07;9.10;;;24.40;1.00;;;;;;7370016;19;20010;-70
2023/09/12 08:18:56;;;;;;;15.32;9.13;;;24.40;1.00;;;;;;7366396;19;20019;-70
2023/09/12 08:21:26;;;;;;;18.17;9.98;;;24.30;1.00;;;;;;7369574;19;20021;-69
2023/09/12 08:23:56;;;;;;;17.52;9.45;;;24.20;1.00;;;;;;7360247;19;20014;-68
2023/09/12 08:26:26;;;;;;;15.68;9.25;;;24.30;1.00;;;;;;7376349;19;20109;-69
2023/09/12 08:28:56;;;;;;;15.23;9.40;;;24.30;1.00;;;;;;7379401;19;20035;-68
2023/09/12 08:31:29;;;;;;;16.23;9.43;;;24.20;1.00;;;;;;7387607;19;20014;-68
2023/09/12 08:33:59;;;;;;;15.73;9.68;;;24.40;1.00;;;;;;7386048;19;20014;-67
2023/09/12 08:36:29;;;;;;;18.38;10.40;;;24.50;1.00;;;;;;7385928;19;20015;-69
2023/09/12 08:39:00;;;;;;;11.88;9.40;;;24.30;1.00;;;;;;7388249;19;20459;-68
2023/09/12 08:41:30;;;;;;;13.52;9.88;;;24.50;1.00;;;;;;7388124;19;20082;-68
2023/09/12 08:44:00;;;;;;;13.50;9.90;;;24.40;1.00;;;;;;7385584;19;20022;-69
2023/09/12 08:46:33;;;;;;;15.88;9.75;;;24.40;1.00;;;;;;7386718;19;20066;-68
2023/09/12 08:49:03;;;;;;;16.10;8.98;;;24.50;1.00;;;;;;7385769;19;20021;-68
2023/09/12 08:51:34;;;;;;;15.45;8.93;;;24.60;1.00;;;;;;7387623;19;20494;-68
2023/09/12 08:54:05;;;;;;;13.60;8.88;;;24.60;1.00;;;;;;7387343;19;20081;-68
2023/09/12 08:56:38;;;;;;;12.73;8.80;;;24.60;1.00;;;;;;7386726;19;20505;-68
2023/09/12 08:59:10;;;;;;;16.35;9.20;;;25.20;1.00;;;;;;7386461;19;20022;-68
2023/09/12 09:01:43;;;;;;;17.27;8.13;;;25.20;1.00;;;;;;7385042;19;20022;-68
2023/09/12 09:04:13;;;;;;;13.13;8.77;;;25.70;1.00;;;;;;7384591;19;20015;-69
2023/09/12 09:06:44;;;;;;;21.65;7.93;;;26.00;1.00;;;;;;7385196;19;20028;-69
2023/09/12 09:09:15;;;;;;;16.02;9.23;;;26.00;1.00;;;;;;7385056;19;20014;-68
2023/09/12 09:11:45;;;;;;;14.68;9.52;;;26.00;1.00;;;;;;7385532;19;20034;-68
2023/09/12 09:14:15;;;;;;;12.82;7.70;;;25.80;1.00;;;;;;7384706;19;20043;-69
2023/09/12 09:16:47;;;;;;;13.10;7.75;;;26.10;1.00;;;;;;7385694;19;20082;-68
2023/09/12 09:19:19;;;;;;;15.15;8.20;;;26.10;1.00;;;;;;7384363;19;20018;-67
2023/09/12 09:21:50;;;;;;;12.20;7.75;;;26.10;1.00;;;;;;7385006;19;20023;-67
2023/09/12 09:24:22;;;;;;;11.70;7.90;;;26.20;1.00;;;;;;7384682;19;20489;-67
2023/09/12 09:26:59;;;;;;;12.23;7.13;;;26.10;1.00;;;;;;7391708;19;20015;-68
2023/09/12 09:29:31;;;;;;;10.52;7.30;;;26.70;1.00;;;;;;7393354;19;20029;-68
2023/09/12 09:32:05;;;;;;;13.07;7.47;;;26.80;1.00;;;;;;7391334;19;20089;-67
2023/09/12 09:34:35;;;;;;;12.25;7.32;;;26.80;1.00;;;;;;7390978;19;20022;-66
2023/09/12 09:37:07;;;;;;;11.10;7.50;;;26.80;1.00;;;;;;7390482;19;20078;-69
2023/09/12 09:39:38;;;;;;;9.50;6.60;;;26.90;1.00;;;;;;7390853;19;20134;-69
2023/09/12 09:42:13;;;;;;;20.27;7.82;;;27.30;1.00;;;;;;7391690;19;20006;-69
2023/09/12 09:44:43;;;;;;;13.73;7.65;;;27.10;1.00;;;;;;7391469;19;20015;-67
2023/09/12 09:47:15;;;;;;;11.20;7.93;;;27.00;1.00;;;;;;7389425;19;20489;-68
2023/09/12 09:49:48;;;;;;;11.60;7.30;;;27.10;1.00;;;;;;7391420;19;20019;-67
2023/09/12 09:52:18;;;;;;;16.00;7.68;;;27.10;1.00;;;;;;7392686;19;20031;-69
2023/09/12 09:54:48;;;;;;;14.00;6.90;;;27.30;1.00;;;;;;7392894;19;20014;-67
2023/09/12 09:57:17;;;;;;;14.90;7.38;;;27.10;1.00;;;;;;7392738;19;20053;-67
2023/09/12 09:59:53;;;;;;;10.98;7.47;;;27.30;1.00;;;;;;7392833;19;20014;-68
2023/09/12 10:02:29;;;;;;;11.43;7.47;;;27.30;1.00;;;;;;7393653;19;20035;-67
2023/09/12 10:05:01;;;;;;;9.50;6.97;;;27.60;1.00;;;;;;7391606;19;20014;-68
2023/09/12 10:07:35;;;;;;;12.70;7.15;;;27.70;1.00;;;;;;7390374;19;20007;-67
2023/09/12 10:10:05;;;;;;;;;;;28.00;1.00;;;;;;7390959;19;20007;-67
2023/09/12 10:12:38;;;;;;;14.02;7.78;;;28.10;1.00;;;;;;7392250;19;20026;-67
2023/09/12 10:15:12;;;;;;;15.67;7.73;;;27.70;1.00;;;;;;7389111;19;20018;-68
2023/09/12 10:17:48;;;;;;;12.30;7.25;;;27.30;1.00;;;;;;7389981;19;20094;-70
2023/09/12 10:20:24;;;;;;;14.98;7.53;;;27.60;1.00;;;;;;7389954;19;20018;-68
2023/09/12 10:23:03;;;;;;;11.52;7.22;;;27.40;1.00;;;;;;7391041;19;20046;-67
2023/09/12 10:25:34;;;;;;;10.30;7.32;;;27.70;1.00;;;;;;7390649;19;20070;-68
2023/09/12 10:28:05;;;;;;;12.48;7.18;;;27.80;1.00;;;;;;7390505;19;20015;-68
2023/09/12 10:30:36;;;;;;;14.13;7.22;;;27.80;1.00;;;;;;7391264;19;20023;-68
2023/09/12 10:33:10;;;;;;;10.93;7.25;;;28.10;1.00;;;;;;7389378;19;20022;-68
2023/09/12 10:35:42;;;;;;;10.07;7.40;;;28.20;1.00;;;;;;7390089;19;20018;-68
2023/09/12 10:38:14;;;;;;;9.68;6.72;;;28.00;1.00;;;;;;7387813;19;20042;-69
2023/09/12 10:40:44;;;;;;;11.25;6.68;;;28.40;1.00;;;;;;7389549;19;20011;-68
2023/09/12 10:43:16;;;;;;;13.35;7.50;;;28.50;1.00;;;;;;7386028;19;20026;-69
2023/09/12 10:45:48;;;;;;;9.75;6.80;;;28.40;1.00;;;;;;7387322;19;20018;-67
2023/09/12 10:48:20;;;;;;;11.85;7.07;;;28.60;1.00;;;;;;7389331;19;20381;-68
2023/09/12 10:50:51;;;;;;;10.52;7.15;;;28.70;1.00;;;;;;7388048;19;20019;-68
2023/09/12 10:53:25;;;;;;;11.40;7.25;;;28.40;1.00;;;;;;7390308;19;20014;-68
2023/09/12 10:56:03;;;;;;;8.52;6.72;;;28.50;1.00;;;;;;7387859;19;20046;-69
2023/09/12 10:58:33;;;;;;;11.68;7.45;;;28.30;1.00;;;;;;7389613;19;20025;-67
2023/09/12 11:01:25;;;;;;;12.55;6.47;;;28.50;1.00;;;;;;7386808;19;20018;-67
2023/09/12 11:03:57;;;;;;;11.80;6.32;;;28.50;1.00;;;;;;7388345;19;20538;-67
2023/09/12 11:06:32;;;;;;;14.23;6.80;;;28.80;1.00;;;;;;7386647;19;20364;-68
2023/09/12 11:09:23;;;;;;;10.77;6.65;;;28.70;1.00;;;;;;7388989;19;20015;-68
2023/09/12 11:11:58;;;;;;;8.57;6.65;;;28.90;1.00;;;;;;7388933;19;20014;-68
2023/09/12 11:14:29;;;;;;;10.02;7.03;;;29.00;1.00;;;;;;7388503;19;20057;-68
2023/09/12 11:17:26;;;;;;;8.05;6.30;;;29.10;1.00;;;;;;7388046;19;20026;-69
2023/09/12 11:20:10;;;;;;;11.32;6.63;;;29.40;1.00;;;;;;7387895;19;20021;-68
2023/09/12 11:22:41;;;;;;;9.35;6.70;;;29.40;1.00;;;;;;7389503;19;20014;-68
2023/09/12 11:25:22;;;;;;;11.07;6.40;;;29.30;1.00;;;;;;7387407;19;20042;-68
2023/09/12 11:28:06;;;;;;;9.02;5.95;;;29.00;1.00;;;;;;7389625;19;20038;-68
2023/09/12 11:30:36;;;;;;;10.13;6.40;;;29.00;1.00;;;;;;7389074;19;20060;-68
2023/09/12 11:33:12;;;;;;;11.15;6.18;;;29.30;1.00;;;;;;7386605;19;20029;-68
2023/09/12 11:35:45;;;;;;;10.18;6.30;;;29.30;1.00;;;;;;7387917;19;20050;-68
2023/09/12 11:38:28;;;;;;;11.05;6.68;;;29.20;1.00;;;;;;7387999;19;20018;-68
2023/09/12 11:41:00;;;;;;;15.07;6.00;;;29.20;1.00;;;;;;7386634;19;20089;-68
2023/09/12 11:43:31;;;;;;;9.82;6.15;;;29.20;1.00;;;;;;7388721;19;20039;-68
2023/09/12 11:46:02;;;;;;;7.93;6.63;;;29.30;1.00;;;;;;7386088;19;20157;-67
2023/09/12 11:48:32;;;;;;;8.00;6.30;;;29.20;1.00;;;;;;7388149;19;20015;-68
2023/09/12 11:51:10;;;;;;;10.80;5.70;;;29.40;1.00;;;;;;7386787;19;20038;-68
2023/09/12 11:53:40;;;;;;;9.85;6.25;;;29.50;1.00;;;;;;7387481;19;20018;-67
2023/09/12 11:56:10;;;;;;;11.43;6.85;;;29.50;1.00;;;;;;7385917;19;20018;-68
2023/09/12 11:58:40;;;;;;;9.80;6.97;;;29.70;1.00;;;;;;7387429;19;20058;-68
2023/09/12 12:01:15;;;;;;;11.10;6.93;;;29.60;1.00;;;;;;7386070;19;20018;-68
2023/09/12 12:03:46;;;;;;;14.13;6.72;;;29.60;1.00;;;;;;7385900;19;20022;-67
2023/09/12 12:06:19;;;;;;;8.43;6.40;;;29.50;1.00;;;;;;7384464;19;20021;-68
2023/09/12 12:08:54;;;;;;;8.88;5.47;;;29.50;1.00;;;;;;7389031;19;20048;-68
2023/09/12 12:11:24;;;;;;;9.75;6.25;;;29.80;1.00;;;;;;7387163;19;20021;-67
2023/09/12 12:13:54;;;;;;;8.95;6.20;;;29.90;1.00;;;;;;7388737;19;20015;-67
2023/09/12 12:16:24;;;;;;;9.93;6.05;;;30.10;1.00;;;;;;7388159;19;20087;-68
2023/09/12 12:18:57;;;;;;;9.88;6.53;;;29.90;1.00;;;;;;7377713;19;20733;-68
2023/09/12 12:21:31;;;;;;;10.85;7.07;;;30.00;1.00;;;;;;7360366;19;20042;-68
2023/09/12 12:24:02;;;;;;;9.95;6.07;;;30.00;1.00;;;;;;7357910;19;20026;-68
2023/09/12 12:26:33;;;;;;;12.23;6.40;;;29.80;1.00;;;;;;7359934;19;20018;-69
2023/09/12 12:29:03;;;;;;;11.73;6.55;;;30.00;1.00;;;;;;7359525;19;20018;-68
2023/09/12 12:31:33;;;;;;;9.40;6.72;;;30.40;1.00;;;;;;7361650;19;20019;-68
2023/09/12 12:34:04;;;;;;;7.43;5.72;;;30.40;1.00;;;;;;7357278;19;20054;-67
2023/09/12 12:36:56;;;;;;;9.95;5.88;;;30.30;1.00;;;;;;7358663;19;20018;-68
2023/09/12 12:39:28;;;;;;;9.43;6.32;;;30.20;1.00;;;;;;7368309;19;20011;-68
2023/09/12 12:41:58;;;;;;;10.55;6.22;;;30.10;1.00;;;;;;7364999;19;20015;-69
2023/09/12 12:44:40;;;;;;;8.55;5.78;;;30.40;1.00;;;;;;7365002;19;20070;-69
2023/09/12 12:47:12;;;;;;;9.15;6.05;;;30.50;1.00;;;;;;7363164;19;20052;-69
2023/09/12 12:49:43;;;;;;;8.38;6.28;;;30.30;1.00;;;;;;7366628;19;20011;-69
2023/09/12 12:52:16;;;;;;;9.40;5.63;;;30.10;1.00;;;;;;7365667;19;20021;-71
2023/09/12 12:54:45;;;;;;;7.30;5.68;;;30.00;1.00;;;;;;7360364;19;20685;-70
2023/09/12 12:57:15;;;;;;;16.20;6.38;;;30.00;1.00;;;;;;7363478;19;20569;-70
2023/09/12 12:59:48;;;;;;;9.55;6.07;;;30.00;1.00;;;;;;7365248;19;20086;-70
2023/09/12 13:02:19;;;;;;;9.57;5.72;;;30.10;1.00;;;;;;7368773;19;20023;-70
2023/09/12 13:04:49;;;;;;;12.32;6.25;;;30.00;1.00;;;;;;7370368;19;20018;-69
2023/09/12 13:07:22;;;;;;;7.75;5.30;;;29.90;1.00;;;;;;7371190;19;20759;-69
2023/09/12 13:09:52;;;;;;;10.05;5.85;;;29.80;1.00;;;;;;7371763;19;20086;-69